createdAt,value
2022-09-05T00:02:15.234Z,19.32
2022-09-05T00:06:16.596Z,19.27
2022-09-05T00:10:37.294Z,19.28
2022-09-05T00:15:31.198Z,19.11
2022-09-05T00:24:22.526Z,19.08
2022-09-05T00:24:42.327Z,19.32
2022-09-05T00:28:52.970Z,19.38
2022-09-05T00:33:32.255Z,19.22
2022-09-05T00:37:45.446Z,19.08
2022-09-05T00:41:43.001Z,18.64
2022-09-05T00:45:58.656Z,18.76
2022-09-05T00:50:03.301Z,18.51
2022-09-05T00:54:24.829Z,18.84
2022-09-05T00:59:04.215Z,18.76
2022-09-05T01:03:35.400Z,18.81
2022-09-05T01:07:51.342Z,18.72
2022-09-05T01:12:27.155Z,18.52
2022-09-05T01:16:45.355Z,18.33
2022-09-05T01:21:00.473Z,18.31
2022-09-05T01:25:20.108Z,18.22
2022-09-05T01:29:53.438Z,18.15
2022-09-05T01:34:39.717Z,18.31
2022-09-05T01:40:12.034Z,18.08
2022-09-05T01:44:09.535Z,17.95
2022-09-05T01:48:23.679Z,18.08
2022-09-05T01:53:10.816Z,18.19
2022-09-05T01:57:24.370Z,18.24
2022-09-05T02:02:18.943Z,18.36
2022-09-05T02:06:39.186Z,18.09
2022-09-05T02:11:01.595Z,18.04
2022-09-05T02:15:10.109Z,18.08
2022-09-05T02:19:09.560Z,18.03
2022-09-05T02:23:40.408Z,17.97
2022-09-05T02:28:04.875Z,17.80
2022-09-05T02:32:29.680Z,17.46
2022-09-05T02:36:48.757Z,17.81
2022-09-05T02:45:21.234Z,17.57
2022-09-05T02:45:27.259Z,17.77
2022-09-05T02:52:21.204Z,17.79
2022-09-05T02:57:33.580Z,17.68
2022-09-05T02:59:09.030Z,17.72
2022-09-05T03:03:29.106Z,17.73
2022-09-05T03:08:00.024Z,17.73
2022-09-05T03:12:59.688Z,17.74
2022-09-05T03:17:44.380Z,17.62
2022-09-05T03:22:18.910Z,17.71
2022-09-05T03:26:56.047Z,17.60
2022-09-05T03:31:06.661Z,17.69
2022-09-05T03:35:43.650Z,17.59
2022-09-05T03:40:29.045Z,17.51
2022-09-05T03:45:12.057Z,17.56
2022-09-05T03:52:15.205Z,17.47
2022-09-05T03:57:15.712Z,17.50
2022-09-05T03:59:22.912Z,17.41
2022-09-05T04:08:06.107Z,17.32
2022-09-05T04:08:32.521Z,16.92
2022-09-05T04:12:47.688Z,17.22
2022-09-05T04:17:00.543Z,17.05
2022-09-05T04:21:12.884Z,17.06
2022-09-05T04:25:31.454Z,17.01
2022-09-05T04:29:48.860Z,16.97
2022-09-05T04:34:09.154Z,16.95
2022-09-05T04:38:15.254Z,16.86
2022-09-05T04:42:23.029Z,16.75
2022-09-05T04:46:48.852Z,16.59
2022-09-05T04:51:08.498Z,16.70
2022-09-05T04:55:33.085Z,16.85
2022-09-05T05:03:29.933Z,17.11
2022-09-05T05:06:16.110Z,17.10
2022-09-05T05:08:54.613Z,17.25
2022-09-05T05:17:58.023Z,17.49
2022-09-05T05:18:38.632Z,17.59
2022-09-05T05:22:18.434Z,17.91
2022-09-05T05:26:41.150Z,17.81
2022-09-05T05:30:40.456Z,17.89
2022-09-05T05:34:47.317Z,17.75
2022-09-05T05:39:02.854Z,18.06
2022-09-05T05:43:26.518Z,18.12
2022-09-05T05:47:37.059Z,18.27
2022-09-05T05:52:02.521Z,18.06
2022-09-05T05:56:41.593Z,18.35
2022-09-05T06:01:00.368Z,18.30
2022-09-05T06:05:50.384Z,18.52
2022-09-05T06:14:52.224Z,18.40
2022-09-05T06:15:12.281Z,18.72
2022-09-05T06:20:39.229Z,18.73
2022-09-05T06:24:58.504Z,18.88
2022-09-05T06:29:48.330Z,19.08
2022-09-05T06:33:57.559Z,19.33
2022-09-05T06:38:30.238Z,19.26
2022-09-05T06:42:49.190Z,19.55
2022-09-05T06:47:07.776Z,19.82
2022-09-05T06:51:30.712Z,19.95
2022-09-05T06:56:08.630Z,20.09
2022-09-05T07:00:22.520Z,20.45
2022-09-05T07:05:24.540Z,20.50
2022-09-05T07:09:22.161Z,20.92
2022-09-05T07:13:42.194Z,21.10
2022-09-05T07:18:13.199Z,21.26
2022-09-05T07:22:48.410Z,21.59
2022-09-05T07:26:53.820Z,21.80
2022-09-05T07:31:00.980Z,21.84
2022-09-05T07:35:03.246Z,22.17
2022-09-05T07:39:27.781Z,22.03
2022-09-05T07:43:32.438Z,22.54
2022-09-05T07:48:00.216Z,22.85
2022-09-05T07:56:53.780Z,23.20
2022-09-05T08:01:14.684Z,24.40
2022-09-05T08:05:18.917Z,24.66
2022-09-05T08:10:05.940Z,25.28
2022-09-05T08:14:43.967Z,25.85
2022-09-05T08:19:01.140Z,26.42
2022-09-05T08:23:33.716Z,26.88
2022-09-05T08:28:11.638Z,27.31
2022-09-05T08:32:35.358Z,28.51
2022-09-05T08:36:41.762Z,29.07
2022-09-05T08:41:06.486Z,29.72
2022-09-05T08:46:48.546Z,29.76
2022-09-05T08:50:26.937Z,29.42
2022-09-05T08:54:40.833Z,30.13
2022-09-05T08:58:46.317Z,30.49
2022-09-05T09:03:13.186Z,30.86
2022-09-05T09:07:51.119Z,30.56
2022-09-05T09:12:10.779Z,31.77
2022-09-05T09:16:34.132Z,32.27
2022-09-05T09:20:56.875Z,32.11
2022-09-05T09:25:16.063Z,31.54
2022-09-05T09:29:18.955Z,32.51
2022-09-05T09:33:32.593Z,34.68
2022-09-05T09:38:28.347Z,35.60
2022-09-05T09:42:40.325Z,34.83
2022-09-05T09:46:49.830Z,35.02
2022-09-05T09:51:13.944Z,34.57
2022-09-05T09:55:52.193Z,35.79
2022-09-05T10:00:15.781Z,36.46
2022-09-05T10:10:38.534Z,36.05
2022-09-05T10:10:46.526Z,37.48
2022-09-05T10:14:30.684Z,37.83
2022-09-05T10:20:07.869Z,37.65
2022-09-05T10:24:39.146Z,36.20
2022-09-05T10:29:11.741Z,35.85
2022-09-05T10:35:23.266Z,35.26
2022-09-05T10:38:11.562Z,35.53
2022-09-05T10:42:43.369Z,35.73
2022-09-05T10:47:17.068Z,36.65
2022-09-05T10:51:26.974Z,37.04
2022-09-05T10:56:14.362Z,35.99
2022-09-05T11:02:26.863Z,35.94
2022-09-05T11:05:37.589Z,36.88
2022-09-05T11:10:08.494Z,37.06
2022-09-05T11:14:26.560Z,36.95
2022-09-05T11:18:55.964Z,38.67
2022-09-05T11:23:04.922Z,39.52
2022-09-05T11:27:26.225Z,39.14
2022-09-05T11:31:52.482Z,38.86
2022-09-05T11:39:52.236Z,39.67
2022-09-05T11:41:23.847Z,40.99
2022-09-05T11:45:52.234Z,42.48
2022-09-05T11:50:22.191Z,42.84
2022-09-05T11:55:05.428Z,43.82
2022-09-05T11:59:44.901Z,42.27
2022-09-05T12:04:00.247Z,42.93
2022-09-05T12:08:44.132Z,40.47
2022-09-05T12:13:29.303Z,40.99
2022-09-05T12:17:49.558Z,43.39
2022-09-05T12:22:28.538Z,42.22
2022-09-05T12:27:40.469Z,44.04
2022-09-05T12:32:59.485Z,43.71
2022-09-05T12:39:52.163Z,43.61
2022-09-05T12:41:38.190Z,45.07
2022-09-05T12:45:36.454Z,43.64
2022-09-05T12:49:52.258Z,44.00
2022-09-05T12:54:09.382Z,44.38
2022-09-05T13:03:01.267Z,40.71
2022-09-05T13:03:28.790Z,41.24
2022-09-05T13:07:42.936Z,40.41
2022-09-05T13:14:54.910Z,40.88
2022-09-05T13:16:39.807Z,42.26
2022-09-05T13:20:45.745Z,41.77
2022-09-05T13:24:53.451Z,42.08
2022-09-05T13:29:09.824Z,42.95
2022-09-05T13:37:55.157Z,42.16
2022-09-05T13:38:20.787Z,42.09
2022-09-05T13:42:10.440Z,41.79
2022-09-05T13:46:26.329Z,41.91
2022-09-05T13:50:30.956Z,42.11
2022-09-05T13:55:09.489Z,42.20
2022-09-05T13:59:15.065Z,42.35
2022-09-05T14:03:40.221Z,38.91
2022-09-05T14:08:19.683Z,37.37
2022-09-05T14:12:37.258Z,37.46
2022-09-05T14:16:53.576Z,37.46
2022-09-05T14:21:15.990Z,35.69
2022-09-05T14:25:24.767Z,34.69
2022-09-05T14:29:33.200Z,36.00
2022-09-05T14:37:55.498Z,37.56
2022-09-05T14:38:19.124Z,38.68
2022-09-05T14:42:35.374Z,39.47
2022-09-05T14:46:54.054Z,39.46
2022-09-05T14:51:25.751Z,38.61
2022-09-05T14:55:23.283Z,38.35
2022-09-05T15:02:53.743Z,38.02
2022-09-05T15:10:23.937Z,37.08
2022-09-05T15:13:02.619Z,37.29
2022-09-05T15:17:05.732Z,37.30
2022-09-05T15:21:41.326Z,36.91
2022-09-05T15:25:51.346Z,36.50
2022-09-05T15:29:56.129Z,36.58
2022-09-05T15:33:54.686Z,37.26
2022-09-05T15:37:51.685Z,37.33
2022-09-05T15:41:49.150Z,37.27
2022-09-05T15:45:50.113Z,36.49
2022-09-05T15:49:53.207Z,35.60
2022-09-05T15:53:56.400Z,34.95
2022-09-05T15:58:04.793Z,34.24
2022-09-05T16:02:12.278Z,34.18
2022-09-05T16:10:33.452Z,33.96
2022-09-05T16:11:07.022Z,33.79
2022-09-05T16:15:35.862Z,34.19
2022-09-05T16:23:31.186Z,34.75
2022-09-05T16:24:11.295Z,36.08
2022-09-05T16:28:36.523Z,36.86
2022-09-05T16:32:41.430Z,37.62
2022-09-05T16:37:08.952Z,37.47
2022-09-05T16:41:24.310Z,37.81
2022-09-05T16:45:24.990Z,37.62
2022-09-05T16:49:42.023Z,37.18
2022-09-05T16:53:50.814Z,36.89
2022-09-05T16:58:14.627Z,36.38
2022-09-05T17:02:30.408Z,36.00
2022-09-05T17:06:55.994Z,33.92
2022-09-05T17:11:13.811Z,33.57
2022-09-05T17:15:38.311Z,33.27
2022-09-05T17:20:06.282Z,32.74
2022-09-05T17:29:20.804Z,31.71
2022-09-05T17:29:47.278Z,31.21
2022-09-05T17:33:29.888Z,30.45
2022-09-05T17:38:11.198Z,30.34
2022-09-05T17:42:41.528Z,29.81
2022-09-05T17:47:10.345Z,29.11
2022-09-05T17:51:18.537Z,28.85
2022-09-05T17:55:18.430Z,28.39
2022-09-05T17:59:21.386Z,28.41
2022-09-05T18:03:37.161Z,28.21
2022-09-05T18:07:34.816Z,26.73
2022-09-05T18:12:02.860Z,27.62
2022-09-05T18:15:59.845Z,27.75
2022-09-05T18:20:10.040Z,27.64
2022-09-05T18:24:15.835Z,27.57
2022-09-05T18:28:34.624Z,27.73
2022-09-05T18:33:55.057Z,27.78
2022-09-05T18:37:36.273Z,27.77
2022-09-05T18:41:38.494Z,27.55
2022-09-05T18:45:38.245Z,27.54
2022-09-05T18:50:25.377Z,27.51
2022-09-05T18:54:20.234Z,27.41
2022-09-05T18:58:27.385Z,27.27
2022-09-05T19:02:58.665Z,27.27
2022-09-05T19:07:09.184Z,27.11
2022-09-05T19:11:25.336Z,26.83
2022-09-05T19:15:31.222Z,26.46
2022-09-05T19:19:31.425Z,26.46
2022-09-05T19:23:34.733Z,26.29
2022-09-05T19:30:40.706Z,26.20
2022-09-05T19:36:49.414Z,25.80
2022-09-05T19:37:02.249Z,26.21
2022-09-05T19:47:29.479Z,24.91
2022-09-05T19:47:38.548Z,25.12
2022-09-05T19:49:24.478Z,25.11
2022-09-05T19:53:22.537Z,24.77
2022-09-05T19:57:21.112Z,25.15
2022-09-05T20:01:23.072Z,24.96
2022-09-05T20:05:22.918Z,24.94
2022-09-05T20:09:23.988Z,24.82
2022-09-05T20:13:25.452Z,24.75
2022-09-05T20:17:32.287Z,24.62
2022-09-05T20:21:33.925Z,24.65
2022-09-05T20:25:43.752Z,24.65
2022-09-05T20:30:00.216Z,24.52
2022-09-05T20:33:58.757Z,24.34
2022-09-05T20:43:09.123Z,24.19
2022-09-05T20:43:31.792Z,24.11
2022-09-05T20:48:58.786Z,24.10
2022-09-05T20:54:23.017Z,24.11
2022-09-05T20:55:46.279Z,24.09
2022-09-05T20:59:47.232Z,23.51
2022-09-05T21:04:06.614Z,23.17
2022-09-05T21:08:32.799Z,23.27
2022-09-05T21:12:45.553Z,23.39
2022-09-05T21:16:56.030Z,23.31
2022-09-05T21:20:57.401Z,23.17
2022-09-05T21:25:16.314Z,22.61
2022-09-05T21:29:13.242Z,22.60
2022-09-05T21:33:21.629Z,22.70
2022-09-05T21:37:25.643Z,22.61
2022-09-05T21:41:22.647Z,22.41
2022-09-05T21:47:41.524Z,22.60
2022-09-05T21:49:38.796Z,22.12
2022-09-05T21:58:37.605Z,21.92
2022-09-05T21:59:20.184Z,21.74
2022-09-05T22:02:23.341Z,22.07
2022-09-05T22:06:20.583Z,21.85
2022-09-05T22:10:17.590Z,21.71
2022-09-05T22:14:14.564Z,21.80
2022-09-05T22:18:17.566Z,21.76
2022-09-05T22:22:24.452Z,21.49
2022-09-05T22:26:21.976Z,21.29
2022-09-05T22:30:19.070Z,21.49
2022-09-05T22:34:16.563Z,20.92
2022-09-05T22:38:19.302Z,21.47
2022-09-05T22:42:17.100Z,21.03
2022-09-05T22:46:14.775Z,21.30
2022-09-05T22:50:11.768Z,21.14
2022-09-05T22:54:08.731Z,21.31
2022-09-05T22:58:10.116Z,21.26
2022-09-05T23:02:07.179Z,21.11
2022-09-05T23:06:10.627Z,21.15
2022-09-05T23:10:07.953Z,20.97
2022-09-05T23:14:05.014Z,20.75
2022-09-05T23:18:03.558Z,21.02
2022-09-05T23:22:00.594Z,20.97
2022-09-05T23:26:11.499Z,20.78
2022-09-05T23:30:09.643Z,20.77
2022-09-05T23:34:06.658Z,20.73
2022-09-05T23:38:09.183Z,20.75
2022-09-05T23:42:06.471Z,20.62
2022-09-05T23:46:05.663Z,20.67
2022-09-05T23:50:04.142Z,20.67
2022-09-05T23:54:01.265Z,20.70
2022-09-05T23:57:58.945Z,20.47
